createdAt,value
2022-08-20T00:00:27.378Z,16.96
2022-08-20T00:03:02.706Z,17.02
2022-08-20T00:05:34.432Z,17.02
2022-08-20T00:08:03.954Z,17.04
2022-08-20T00:10:32.621Z,17.05
2022-08-20T00:12:59.204Z,17.02
2022-08-20T00:15:31.448Z,16.93
2022-08-20T00:17:58.941Z,16.87
2022-08-20T00:20:29.301Z,16.80
2022-08-20T00:22:56.950Z,16.77
2022-08-20T00:25:25.605Z,16.77
2022-08-20T00:27:52.177Z,16.71
2022-08-20T00:30:18.630Z,16.64
2022-08-20T00:32:51.920Z,16.63
2022-08-20T00:35:20.664Z,16.58
2022-08-20T00:37:47.462Z,16.59
2022-08-20T00:40:22.230Z,16.54
2022-08-20T00:42:55.296Z,16.51
2022-08-20T00:45:21.728Z,16.50
2022-08-20T00:47:51.325Z,16.50
2022-08-20T00:50:33.927Z,16.50
2022-08-20T00:53:02.804Z,16.51
2022-08-20T00:55:31.777Z,16.52
2022-08-20T00:58:03.167Z,16.54
2022-08-20T01:00:33.961Z,16.55
2022-08-20T01:03:01.604Z,16.57
2022-08-20T01:05:29.905Z,16.51
2022-08-20T01:07:57.033Z,16.37
2022-08-20T01:10:32.068Z,16.25
2022-08-20T01:12:59.892Z,16.22
2022-08-20T01:15:31.789Z,16.22
2022-08-20T01:18:00.908Z,16.19
2022-08-20T01:20:36.387Z,16.18
2022-08-20T01:23:36.005Z,16.14
2022-08-20T01:26:11.097Z,16.10
2022-08-20T01:28:37.936Z,16.06
2022-08-20T01:31:07.179Z,15.99
2022-08-20T01:33:34.048Z,15.96
2022-08-20T01:36:00.605Z,15.92
2022-08-20T01:38:29.450Z,15.89
2022-08-20T01:41:10.564Z,15.88
2022-08-20T01:43:37.821Z,15.86
2022-08-20T01:46:04.825Z,15.86
2022-08-20T01:48:31.430Z,15.83
2022-08-20T01:51:04.808Z,15.74
2022-08-20T01:53:35.989Z,15.65
2022-08-20T01:56:05.733Z,15.57
2022-08-20T01:58:34.584Z,15.50
2022-08-20T02:01:01.000Z,15.40
2022-08-20T02:03:27.618Z,15.28
2022-08-20T02:05:54.102Z,15.14
2022-08-20T02:08:21.686Z,15.09
2022-08-20T02:10:49.395Z,15.05
2022-08-20T02:13:16.415Z,15.04
2022-08-20T02:15:43.313Z,15.02
2022-08-20T02:18:13.373Z,14.94
2022-08-20T02:20:41.791Z,14.87
2022-08-20T02:23:08.392Z,14.83
2022-08-20T02:25:40.074Z,14.79
2022-08-20T02:28:11.343Z,14.72
2022-08-20T02:30:42.007Z,14.69
2022-08-20T02:33:11.231Z,14.64
2022-08-20T02:35:39.323Z,14.56
2022-08-20T02:38:06.111Z,14.52
2022-08-20T02:40:32.609Z,14.49
2022-08-20T02:43:00.292Z,14.40
2022-08-20T02:45:27.506Z,14.32
2022-08-20T02:47:55.615Z,14.28
2022-08-20T02:50:23.831Z,14.27
2022-08-20T02:52:51.666Z,14.27
2022-08-20T02:55:27.927Z,14.22
2022-08-20T02:58:00.028Z,14.17
2022-08-20T03:00:32.237Z,14.10
2022-08-20T03:03:05.617Z,14.07
2022-08-20T03:05:32.117Z,14.01
2022-08-20T03:07:58.607Z,13.97
2022-08-20T03:10:28.653Z,13.93
2022-08-20T03:12:55.269Z,13.89
2022-08-20T03:15:21.689Z,13.82
2022-08-20T03:17:48.384Z,13.76
2022-08-20T03:20:15.441Z,13.72
2022-08-20T03:22:42.411Z,13.67
2022-08-20T03:25:10.057Z,13.63
2022-08-20T03:27:36.850Z,13.59
2022-08-20T03:30:06.962Z,13.56
2022-08-20T03:32:33.417Z,13.51
2022-08-20T03:34:59.967Z,13.48
2022-08-20T03:37:30.941Z,13.45
2022-08-20T03:39:57.437Z,13.43
2022-08-20T03:42:23.866Z,13.40
2022-08-20T03:44:52.571Z,13.38
2022-08-20T03:47:25.564Z,13.35
2022-08-20T03:49:51.980Z,13.34
2022-08-20T03:52:18.382Z,13.30
2022-08-20T03:54:45.960Z,13.21
2022-08-20T03:57:15.355Z,13.15
2022-08-20T03:59:44.433Z,13.15
2022-08-20T04:02:11.773Z,13.14
2022-08-20T04:04:40.603Z,13.10
2022-08-20T04:07:20.488Z,13.08
2022-08-20T04:09:46.885Z,13.04
2022-08-20T04:12:13.453Z,12.99
2022-08-20T04:14:40.224Z,12.95
2022-08-20T04:17:09.936Z,12.91
2022-08-20T04:19:37.377Z,12.87
2022-08-20T04:22:03.944Z,12.86
2022-08-20T04:24:32.309Z,12.86
2022-08-20T04:27:00.270Z,12.82
2022-08-20T04:29:31.916Z,12.78
2022-08-20T04:32:00.565Z,12.77
2022-08-20T04:34:29.232Z,12.78
2022-08-20T04:36:55.988Z,12.76
2022-08-20T04:39:22.573Z,12.74
2022-08-20T04:41:49.176Z,12.70
2022-08-20T04:44:15.578Z,12.69
2022-08-20T04:46:43.624Z,12.68
2022-08-20T04:49:10.060Z,12.70
2022-08-20T04:51:37.053Z,12.69
2022-08-20T04:54:04.359Z,12.66
2022-08-20T04:56:38.624Z,12.64
2022-08-20T04:59:07.134Z,12.68
2022-08-20T05:01:33.655Z,12.70
2022-08-20T05:04:00.122Z,12.70
2022-08-20T05:06:30.634Z,12.74
2022-08-20T05:08:59.662Z,12.74
2022-08-20T05:11:33.992Z,12.76
2022-08-20T05:14:08.606Z,12.79
2022-08-20T05:16:37.857Z,12.87
2022-08-20T05:19:05.953Z,12.88
2022-08-20T05:21:32.400Z,12.93
2022-08-20T05:23:58.778Z,13.03
2022-08-20T05:26:26.350Z,13.13
2022-08-20T05:28:58.819Z,13.18
2022-08-20T05:31:31.734Z,13.29
2022-08-20T05:34:03.851Z,13.41
2022-08-20T05:36:30.374Z,13.55
2022-08-20T05:38:57.217Z,13.66
2022-08-20T05:41:29.043Z,13.76
2022-08-20T05:43:57.879Z,13.93
2022-08-20T05:46:24.293Z,14.08
2022-08-20T05:48:50.716Z,14.26
2022-08-20T05:51:17.548Z,14.42
2022-08-20T05:53:44.078Z,14.55
2022-08-20T05:56:13.324Z,14.75
2022-08-20T05:58:39.878Z,14.99
2022-08-20T06:01:06.404Z,15.22
2022-08-20T06:03:51.226Z,15.48
2022-08-20T06:06:38.779Z,15.73
2022-08-20T06:09:04.390Z,16.13
2022-08-20T06:11:33.861Z,16.44
2022-08-20T06:14:03.848Z,16.71
2022-08-20T06:16:30.762Z,16.95
2022-08-20T06:18:58.353Z,17.16
2022-08-20T06:21:24.993Z,17.45
2022-08-20T06:23:57.509Z,17.63
2022-08-20T06:26:30.318Z,17.87
2022-08-20T06:28:58.499Z,18.08
2022-08-20T06:31:24.986Z,18.31
2022-08-20T06:33:51.417Z,18.50
2022-08-20T06:36:18.840Z,18.71
2022-08-20T06:38:46.373Z,19.01
2022-08-20T06:41:13.163Z,19.13
2022-08-20T06:43:39.657Z,19.29
2022-08-20T06:46:06.830Z,19.36
2022-08-20T06:48:34.125Z,19.55
2022-08-20T06:51:00.684Z,19.82
2022-08-20T06:53:27.137Z,20.09
2022-08-20T06:55:56.863Z,20.17
2022-08-20T06:58:37.468Z,20.10
2022-08-20T07:01:10.796Z,19.68
2022-08-20T07:03:38.844Z,19.59
2022-08-20T07:06:06.422Z,20.02
2022-08-20T07:08:32.933Z,20.34
2022-08-20T07:10:59.668Z,20.16
2022-08-20T07:13:26.192Z,20.28
2022-08-20T07:15:54.525Z,20.37
2022-08-20T07:18:27.879Z,20.37
2022-08-20T07:20:56.920Z,20.48
2022-08-20T07:23:24.261Z,20.55
2022-08-20T07:25:50.996Z,20.75
2022-08-20T07:28:20.851Z,21.29
2022-08-20T07:31:13.495Z,21.22
2022-08-20T07:33:42.464Z,20.87
2022-08-20T07:36:11.196Z,20.82
2022-08-20T07:38:37.891Z,20.83
2022-08-20T07:41:13.085Z,21.19
2022-08-20T07:43:40.600Z,21.15
2022-08-20T07:46:09.175Z,21.23
2022-08-20T07:48:46.883Z,21.01
2022-08-20T07:51:17.048Z,21.18
2022-08-20T07:53:44.480Z,21.70
2022-08-20T07:56:13.977Z,21.50
2022-08-20T07:58:47.423Z,21.57
2022-08-20T08:01:13.953Z,21.56
2022-08-20T08:03:49.255Z,21.65
2022-08-20T08:06:28.654Z,21.85
2022-08-20T08:08:59.441Z,22.23
2022-08-20T08:11:26.016Z,21.87
2022-08-20T08:13:52.551Z,22.20
2022-08-20T08:16:20.106Z,22.46
2022-08-20T08:18:50.347Z,22.39
2022-08-20T08:21:18.979Z,22.38
2022-08-20T08:23:45.697Z,22.14
2022-08-20T08:26:16.148Z,22.50
2022-08-20T08:28:45.365Z,22.63
2022-08-20T08:31:12.495Z,22.67
2022-08-20T08:33:40.601Z,22.88
2022-08-20T08:36:16.364Z,22.73
2022-08-20T08:38:45.311Z,22.53
2022-08-20T08:41:16.226Z,22.31
2022-08-20T08:43:46.790Z,22.25
2022-08-20T08:46:17.887Z,22.14
2022-08-20T08:48:48.250Z,22.12
2022-08-20T08:51:26.618Z,22.16
2022-08-20T08:53:54.766Z,22.32
2022-08-20T08:56:28.389Z,22.30
2022-08-20T08:59:00.472Z,22.30
2022-08-20T09:01:55.163Z,22.48
2022-08-20T09:04:16.914Z,22.45
2022-08-20T09:06:52.308Z,22.80
2022-08-20T09:09:27.959Z,22.52
2022-08-20T09:11:57.338Z,22.80
2022-08-20T09:14:26.710Z,23.16
2022-08-20T09:16:53.684Z,22.83
2022-08-20T09:19:21.062Z,22.29
2022-08-20T09:21:47.441Z,22.40
2022-08-20T09:24:13.894Z,22.53
2022-08-20T09:26:40.391Z,22.54
2022-08-20T09:29:06.952Z,22.43
2022-08-20T09:31:33.340Z,22.39
2022-08-20T09:33:59.803Z,22.40
2022-08-20T09:36:29.210Z,22.65
2022-08-20T09:38:58.997Z,22.85
2022-08-20T09:41:25.371Z,22.58
2022-08-20T09:43:51.748Z,22.94
2022-08-20T09:46:18.267Z,22.50
2022-08-20T09:48:44.765Z,22.39
2022-08-20T09:51:11.302Z,22.50
2022-08-20T09:53:37.786Z,22.49
2022-08-20T09:56:04.306Z,22.65
2022-08-20T09:58:45.372Z,23.20
2022-08-20T10:01:15.090Z,23.08
2022-08-20T10:03:47.900Z,21.99
2022-08-20T10:06:16.537Z,21.68
2022-08-20T10:08:43.801Z,22.14
2022-08-20T10:11:10.289Z,22.87
2022-08-20T10:13:36.728Z,23.11
2022-08-20T10:16:03.521Z,23.04
2022-08-20T10:18:29.941Z,23.19
2022-08-20T10:20:56.532Z,23.36
2022-08-20T10:23:22.928Z,23.37
2022-08-20T10:25:49.366Z,23.22
2022-08-20T10:28:15.775Z,23.00
2022-08-20T10:30:42.202Z,23.22
2022-08-20T10:33:08.614Z,23.52
2022-08-20T10:35:35.198Z,23.17
2022-08-20T10:38:01.791Z,23.33
2022-08-20T10:40:28.289Z,23.56
2022-08-20T10:42:54.704Z,23.84
2022-08-20T10:45:21.577Z,24.23
2022-08-20T10:47:48.009Z,23.72
2022-08-20T10:50:16.649Z,23.68
2022-08-20T10:52:43.097Z,24.14
2022-08-20T10:55:09.914Z,24.72
2022-08-20T10:57:38.880Z,24.28
2022-08-20T11:00:07.964Z,23.42
2022-08-20T11:02:34.432Z,23.40
2022-08-20T11:05:00.852Z,23.59
2022-08-20T11:07:55.328Z,24.06
2022-08-20T11:10:19.484Z,23.42
2022-08-20T11:12:46.621Z,22.94
2022-08-20T11:15:14.718Z,22.90
2022-08-20T11:17:43.152Z,23.00
2022-08-20T11:20:11.801Z,22.72
2022-08-20T11:22:38.304Z,22.96
2022-08-20T11:25:06.511Z,22.96
2022-08-20T11:27:41.689Z,22.74
2022-08-20T11:30:11.799Z,23.08
2022-08-20T11:32:38.446Z,22.92
2022-08-20T11:35:24.423Z,22.92
2022-08-20T11:37:53.904Z,22.79
2022-08-20T11:40:20.815Z,22.63
2022-08-20T11:43:12.690Z,22.84
2022-08-20T11:45:37.515Z,22.89
2022-08-20T11:48:04.708Z,23.29
2022-08-20T11:50:31.179Z,23.40
2022-08-20T11:52:57.808Z,23.78
2022-08-20T11:55:30.076Z,23.16
2022-08-20T11:57:57.333Z,22.83
2022-08-20T12:00:32.609Z,23.64
2022-08-20T12:03:00.326Z,23.75
2022-08-20T12:05:27.389Z,23.30
2022-08-20T12:07:53.881Z,22.55
2022-08-20T12:10:20.346Z,22.45
2022-08-20T12:12:46.748Z,23.07
2022-08-20T12:15:13.145Z,24.20
2022-08-20T12:17:39.832Z,23.64
2022-08-20T12:20:13.479Z,23.03
2022-08-20T12:22:40.321Z,22.62
2022-08-20T12:25:08.433Z,23.29
2022-08-20T12:27:36.153Z,23.28
2022-08-20T12:30:06.801Z,23.34
2022-08-20T12:32:34.012Z,23.38
2022-08-20T12:35:00.585Z,23.51
2022-08-20T12:37:29.844Z,24.10
2022-08-20T12:39:58.522Z,24.69
2022-08-20T12:42:26.275Z,24.11
2022-08-20T12:44:53.575Z,23.79
2022-08-20T12:47:21.456Z,24.14
2022-08-20T12:49:57.334Z,25.40
2022-08-20T12:52:25.496Z,25.47
2022-08-20T12:54:52.540Z,24.32
2022-08-20T12:57:31.286Z,24.01
2022-08-20T13:00:00.560Z,24.23
2022-08-20T13:02:27.983Z,23.76
2022-08-20T13:04:54.460Z,22.98
2022-08-20T13:07:22.128Z,23.52
2022-08-20T13:09:48.890Z,24.15
2022-08-20T13:12:15.369Z,23.99
2022-08-20T13:14:42.466Z,23.15
2022-08-20T13:17:09.899Z,24.12
2022-08-20T13:19:38.357Z,25.75
2022-08-20T13:22:05.453Z,26.23
2022-08-20T13:24:32.104Z,26.32
2022-08-20T13:27:10.994Z,24.29
2022-08-20T13:29:38.328Z,23.60
2022-08-20T13:32:05.553Z,24.26
2022-08-20T13:34:32.084Z,23.90
2022-08-20T13:36:58.655Z,22.78
2022-08-20T13:39:25.083Z,22.50
2022-08-20T13:41:51.580Z,22.51
2022-08-20T13:44:18.450Z,23.82
2022-08-20T13:46:45.104Z,24.29
2022-08-20T13:49:11.535Z,25.17
2022-08-20T13:51:38.028Z,25.56
2022-08-20T13:54:04.533Z,25.81
2022-08-20T13:56:31.014Z,26.43
2022-08-20T13:58:58.490Z,26.52
2022-08-20T14:01:24.962Z,26.80
2022-08-20T14:03:51.426Z,26.80
2022-08-20T14:06:18.291Z,28.10
2022-08-20T14:08:44.707Z,27.57
2022-08-20T14:11:12.805Z,27.30
2022-08-20T14:13:44.212Z,27.12
2022-08-20T14:16:21.322Z,27.01
2022-08-20T14:18:55.499Z,27.32
2022-08-20T14:21:21.975Z,27.92
2022-08-20T14:23:48.378Z,27.86
2022-08-20T14:26:14.785Z,28.16
2022-08-20T14:28:41.815Z,27.87
2022-08-20T14:31:08.209Z,27.96
2022-08-20T14:33:36.123Z,28.43
2022-08-20T14:36:04.028Z,28.20
2022-08-20T14:38:30.448Z,28.03
2022-08-20T14:40:56.880Z,28.49
2022-08-20T14:43:23.291Z,28.57
2022-08-20T14:45:49.677Z,28.46
2022-08-20T14:48:16.142Z,28.54
2022-08-20T14:50:42.749Z,28.45
2022-08-20T14:53:09.312Z,28.37
2022-08-20T14:55:37.503Z,28.46
2022-08-20T14:58:09.042Z,28.95
2022-08-20T15:00:35.610Z,28.16
2022-08-20T15:03:02.125Z,27.93
2022-08-20T15:05:29.723Z,27.65
2022-08-20T15:07:57.577Z,27.39
2022-08-20T15:10:28.705Z,27.47
2022-08-20T15:12:55.381Z,28.53
2022-08-20T15:15:23.586Z,29.37
2022-08-20T15:17:53.693Z,28.51
2022-08-20T15:20:23.173Z,28.43
2022-08-20T15:22:49.967Z,27.97
2022-08-20T15:25:20.321Z,26.96
2022-08-20T15:27:47.394Z,28.70
2022-08-20T15:30:18.562Z,28.82
2022-08-20T15:32:45.378Z,27.76
2022-08-20T15:35:13.187Z,27.85
2022-08-20T15:37:45.145Z,27.72
2022-08-20T15:40:16.125Z,27.37
2022-08-20T15:42:43.276Z,28.01
2022-08-20T15:45:22.047Z,28.86
2022-08-20T15:48:19.855Z,28.37
2022-08-20T15:51:20.968Z,28.58
2022-08-20T15:53:50.323Z,28.35
2022-08-20T15:56:37.388Z,28.86
2022-08-20T15:59:12.592Z,29.41
2022-08-20T16:02:00.686Z,28.88
2022-08-20T16:04:45.875Z,28.71
2022-08-20T16:07:32.921Z,29.93
2022-08-20T16:10:27.324Z,27.84
2022-08-20T16:12:57.742Z,29.07
2022-08-20T16:15:29.377Z,29.74
2022-08-20T16:18:08.205Z,30.17
2022-08-20T16:20:48.037Z,29.24
2022-08-20T16:23:27.863Z,30.04
2022-08-20T16:26:28.361Z,30.64
2022-08-20T16:29:22.516Z,30.65
2022-08-20T16:31:56.432Z,29.45
2022-08-20T16:34:33.485Z,30.50
2022-08-20T16:37:43.593Z,29.95
2022-08-20T16:40:24.759Z,30.20
2022-08-20T16:42:53.064Z,30.66
2022-08-20T16:45:25.799Z,30.77
2022-08-20T16:47:55.531Z,29.85
2022-08-20T16:50:25.790Z,29.07
2022-08-20T16:52:53.164Z,30.53
2022-08-20T16:55:22.916Z,30.42
2022-08-20T16:57:51.526Z,30.23
2022-08-20T17:00:30.438Z,30.11
2022-08-20T17:03:02.505Z,29.85
2022-08-20T17:05:44.886Z,29.93
2022-08-20T17:08:20.452Z,29.32
2022-08-20T17:10:53.621Z,29.09
2022-08-20T17:13:28.203Z,29.72
2022-08-20T17:16:01.529Z,28.77
2022-08-20T17:18:37.501Z,28.80
2022-08-20T17:21:12.448Z,28.71
2022-08-20T17:23:55.624Z,29.24
2022-08-20T17:26:36.068Z,27.00
2022-08-20T17:29:18.319Z,27.74
2022-08-20T17:31:51.509Z,27.77
2022-08-20T17:34:22.196Z,28.10
2022-08-20T17:36:54.291Z,28.17
2022-08-20T17:39:22.923Z,28.07
2022-08-20T17:41:54.356Z,26.71
2022-08-20T17:44:30.987Z,23.30
2022-08-20T17:47:00.024Z,21.81
2022-08-20T17:49:35.221Z,21.21
2022-08-20T17:52:05.801Z,20.80
2022-08-20T17:54:39.184Z,20.43
2022-08-20T17:57:15.363Z,20.27
2022-08-20T18:00:00.738Z,20.06
2022-08-20T18:02:29.671Z,19.86
2022-08-20T18:04:56.665Z,19.71
2022-08-20T18:08:08.512Z,19.59
2022-08-20T18:10:55.308Z,19.36
2022-08-20T18:13:49.513Z,19.21
2022-08-20T18:16:28.776Z,19.14
2022-08-20T18:19:14.963Z,19.06
2022-08-20T18:21:56.079Z,18.90
2022-08-20T18:24:58.367Z,18.82
2022-08-20T18:27:28.076Z,18.68
2022-08-20T18:30:00.418Z,18.57
2022-08-20T18:32:34.459Z,18.37
2022-08-20T18:35:20.861Z,18.39
2022-08-20T18:37:48.229Z,18.29
2022-08-20T18:40:28.824Z,18.19
2022-08-20T18:42:58.587Z,18.02
2022-08-20T18:45:34.681Z,17.84
2022-08-20T18:48:03.161Z,17.79
2022-08-20T18:50:38.539Z,17.78
2022-08-20T18:53:34.589Z,17.65
2022-08-20T18:56:11.950Z,17.53
2022-08-20T18:59:00.737Z,17.55
2022-08-20T19:01:27.578Z,17.50
2022-08-20T19:03:56.407Z,17.48
2022-08-20T19:06:47.548Z,17.40
2022-08-20T19:09:36.042Z,17.33
2022-08-20T19:12:16.754Z,17.34
2022-08-20T19:15:01.331Z,17.31
2022-08-20T19:17:42.489Z,17.18
2022-08-20T19:20:16.840Z,17.18
2022-08-20T19:22:44.573Z,17.11
2022-08-20T19:25:27.189Z,17.02
2022-08-20T19:27:54.151Z,17.02
2022-08-20T19:30:47.357Z,16.87
2022-08-20T19:33:13.865Z,16.84
2022-08-20T19:35:40.756Z,16.77
2022-08-20T19:38:15.010Z,16.70
2022-08-20T19:40:46.033Z,16.63
2022-08-20T19:43:17.673Z,16.55
2022-08-20T19:45:49.030Z,16.43
2022-08-20T19:48:37.503Z,16.37
2022-08-20T19:51:24.260Z,16.30
2022-08-20T19:53:50.869Z,16.24
2022-08-20T19:56:22.963Z,16.18
2022-08-20T19:59:05.644Z,16.13
2022-08-20T20:01:33.591Z,16.08
2022-08-20T20:04:06.587Z,16.04
2022-08-20T20:06:41.628Z,16.02
2022-08-20T20:09:17.344Z,15.96
2022-08-20T20:11:51.688Z,15.91
2022-08-20T20:14:22.275Z,15.96
2022-08-20T20:16:51.314Z,15.88
2022-08-20T20:19:27.557Z,15.88
2022-08-20T20:22:28.682Z,15.76
2022-08-20T20:25:06.326Z,15.67
2022-08-20T20:27:36.382Z,15.65
2022-08-20T20:30:10.774Z,15.59
2022-08-20T20:32:40.049Z,15.58
2022-08-20T20:35:06.764Z,15.49
2022-08-20T20:37:50.303Z,15.44
2022-08-20T20:40:28.571Z,15.38
2022-08-20T20:43:07.249Z,15.33
2022-08-20T20:46:16.936Z,15.28
2022-08-20T20:48:46.686Z,15.25
2022-08-20T20:51:16.744Z,15.25
2022-08-20T20:53:51.059Z,15.24
2022-08-20T20:56:36.211Z,15.31
2022-08-20T20:59:06.827Z,15.22
2022-08-20T21:01:48.253Z,15.16
2022-08-20T21:04:20.453Z,15.14
2022-08-20T21:06:47.440Z,15.13
2022-08-20T21:09:14.292Z,15.11
2022-08-20T21:11:40.728Z,15.10
2022-08-20T21:14:07.127Z,15.07
2022-08-20T21:16:33.803Z,15.05
2022-08-20T21:19:01.246Z,14.99
2022-08-20T21:21:27.645Z,15.04
2022-08-20T21:23:54.148Z,14.98
2022-08-20T21:26:20.604Z,14.98
2022-08-20T21:28:47.025Z,14.98
2022-08-20T21:31:13.443Z,15.03
2022-08-20T21:33:39.910Z,15.06
2022-08-20T21:36:06.546Z,15.04
2022-08-20T21:38:33.057Z,15.11
2022-08-20T21:40:59.682Z,15.10
2022-08-20T21:43:26.831Z,15.04
2022-08-20T21:45:53.208Z,15.05
2022-08-20T21:48:20.253Z,15.04
2022-08-20T21:50:46.762Z,15.09
2022-08-20T21:53:13.479Z,15.06
2022-08-20T21:55:40.740Z,15.03
2022-08-20T21:58:08.434Z,15.08
2022-08-20T22:00:47.020Z,15.08
2022-08-20T22:03:15.116Z,15.08
2022-08-20T22:05:42.038Z,15.04
2022-08-20T22:08:08.593Z,14.99
2022-08-20T22:10:35.035Z,14.99
2022-08-20T22:13:01.719Z,14.96
2022-08-20T22:15:28.789Z,14.94
2022-08-20T22:17:55.174Z,14.91
2022-08-20T22:20:23.149Z,14.84
2022-08-20T22:22:49.595Z,14.94
2022-08-20T22:25:16.358Z,14.97
2022-08-20T22:27:42.824Z,14.99
2022-08-20T22:30:10.143Z,14.98
2022-08-20T22:32:52.080Z,14.91
2022-08-20T22:35:23.399Z,14.89
2022-08-20T22:37:49.826Z,14.86
2022-08-20T22:40:16.270Z,14.83
2022-08-20T22:42:42.671Z,14.76
2022-08-20T22:45:11.549Z,14.79
2022-08-20T22:47:42.164Z,14.80
2022-08-20T22:50:10.799Z,14.83
2022-08-20T22:52:39.226Z,14.82
2022-08-20T22:55:07.126Z,14.74
2022-08-20T22:57:36.090Z,14.73
2022-08-20T23:00:04.321Z,14.64
2022-08-20T23:02:30.719Z,14.67
2022-08-20T23:04:57.191Z,14.62
2022-08-20T23:07:23.727Z,14.56
2022-08-20T23:09:50.227Z,14.53
2022-08-20T23:12:16.615Z,14.54
2022-08-20T23:14:43.033Z,14.48
2022-08-20T23:17:17.507Z,14.49
2022-08-20T23:19:44.404Z,14.52
2022-08-20T23:22:11.192Z,14.50
2022-08-20T23:24:37.733Z,14.49
2022-08-20T23:27:05.925Z,14.46
2022-08-20T23:29:32.716Z,14.46
2022-08-20T23:31:59.931Z,14.43
2022-08-20T23:34:26.961Z,14.38
2022-08-20T23:36:55.548Z,14.34
2022-08-20T23:39:22.236Z,14.35
2022-08-20T23:41:48.911Z,14.34
2022-08-20T23:44:25.957Z,14.30
2022-08-20T23:46:55.488Z,14.30
2022-08-20T23:49:21.978Z,14.26
2022-08-20T23:51:48.439Z,14.28
2022-08-20T23:54:14.968Z,14.26
2022-08-20T23:56:41.468Z,14.23
2022-08-20T23:59:07.968Z,14.29
